MET'MAP v2.0
soon released !

Expected late october,
this new version will be
more efficient, smarter,
and hosted on a brand new
server x3 powerfull...
...and still free !


Not compatible ?
Try the mobile version !

LOG IN : | Subscribe | Disclaimer | Who is Orbifly ? |
ICAO code :

TAF - EIWF Waterford - 20 Feb 2020 06:00 UTC - Data Source NOAA   


- Airport Elevation : 119 ft
- IATA code : WAT
- No reported NOTAMs.


EIWF - Waterford

Latest METAR recorded : 2015/08/11 08:00 EIWF 110800Z 36006KT 310V030 9999 FEW014 BKN029 14/11 Q1021
TAF TAF EIWF
Valid from the 20 at 03:00 until the 20 at 12:00 UTC


200200Z 2003/2012 24020KT 3000 -DZ OVC003
TEMPO 2003/2005 23023G35KT 1200 RADZ OVC001
BECMG 2005/2007 31020G30KT 9999 BKN020
TEMPO 2005/2007 RADZ
BECMG 2007/2009 29015KT

Source NOAA
ATIS : +353 51 877 000


MET'MAP, your aeronautical weather chart ! - Copyright ORBIFLY December 2007

Programming & Development : Alexandra Zaïnal
Co-Developer : Marc-Olivier Méhu
Technical & hardware support : Manuel Goepfert
Concept & Financing : Baudouin d'Aumeries